createdAt,value
2018-12-17T00:00:16.524Z,0.48
2018-12-17T00:01:16.532Z,0.41
2018-12-17T00:02:16.310Z,0.41
2018-12-17T00:04:52.602Z,0.41
2018-12-17T00:05:48.945Z,0.33
2018-12-17T00:06:48.357Z,0.31
2018-12-17T00:07:50.088Z,0.38
2018-12-17T00:10:35.663Z,0.10
2018-12-17T00:12:56.608Z,0.06
2018-12-17T00:19:51.434Z,-0.04
2018-12-17T00:21:28.608Z,-0.01
2018-12-17T00:22:28.728Z,-0.09
2018-12-17T00:24:26.890Z,-0.05
2018-12-17T00:25:22.366Z,-0.09
2018-12-17T00:26:22.413Z,-0.11
2018-12-17T00:27:26.095Z,-0.13
2018-12-17T00:28:23.894Z,-0.16
2018-12-17T00:29:23.403Z,-0.22
2018-12-17T00:30:24.097Z,-0.18
2018-12-17T00:31:24.083Z,-0.23
2018-12-17T00:32:23.721Z,-0.30
2018-12-17T00:33:34.703Z,-0.30
2018-12-17T00:35:30.053Z,-0.36
2018-12-17T00:36:43.678Z,-0.33
2018-12-17T00:40:39.562Z,-0.59
2018-12-17T00:41:31.074Z,-0.69
2018-12-17T00:42:31.042Z,-0.68
2018-12-17T00:45:25.247Z,-0.63
2018-12-17T00:48:48.361Z,-0.70
2018-12-17T00:48:59.586Z,-0.84
2018-12-17T00:51:52.648Z,-0.78
2018-12-17T00:53:00.872Z,-0.84
2018-12-17T00:54:50.903Z,-0.75
2018-12-17T00:55:45.775Z,-0.69
2018-12-17T00:56:46.275Z,-0.75
2018-12-17T00:57:46.175Z,-0.68
2018-12-17T00:58:45.702Z,-0.80
2018-12-17T00:59:47.537Z,-0.83
2018-12-17T01:00:47.557Z,-0.69
2018-12-17T01:01:46.508Z,-0.72
2018-12-17T01:02:45.617Z,-0.68
2018-12-17T01:03:47.249Z,-0.66
2018-12-17T01:04:48.220Z,-0.68
2018-12-17T01:05:47.307Z,-0.52
2018-12-17T01:06:47.324Z,-0.47
2018-12-17T01:07:45.362Z,-0.42
2018-12-17T01:08:45.187Z,-0.48
2018-12-17T01:09:45.233Z,-0.41
2018-12-17T01:10:46.344Z,-0.44
2018-12-17T01:11:45.309Z,-0.27
2018-12-17T01:12:45.351Z,-0.31
2018-12-17T01:13:45.331Z,-0.36
2018-12-17T01:14:46.463Z,-0.37
2018-12-17T01:15:46.696Z,-0.44
2018-12-17T01:16:46.695Z,-0.39
2018-12-17T01:17:46.899Z,-0.42
2018-12-17T01:18:48.740Z,-0.45
2018-12-17T01:19:46.805Z,-0.42
2018-12-17T01:20:46.873Z,-0.45
2018-12-17T01:21:45.110Z,-0.44
2018-12-17T01:22:46.774Z,-0.48
2018-12-17T01:23:45.257Z,-0.42
2018-12-17T01:24:46.775Z,-0.37
2018-12-17T01:25:45.124Z,-0.42
2018-12-17T01:26:46.053Z,-0.48
2018-12-17T01:27:46.831Z,-0.51
2018-12-17T01:28:46.675Z,-0.42
2018-12-17T01:29:53.094Z,-0.45
2018-12-17T01:30:57.536Z,-0.33
2018-12-17T01:32:49.681Z,-0.24
2018-12-17T01:46:25.766Z,0.57
2018-12-17T01:46:49.346Z,0.58
2018-12-17T01:47:49.374Z,0.53
2018-12-17T01:48:49.284Z,0.58
2018-12-17T01:49:49.223Z,0.65
2018-12-17T02:19:01.743Z,0.90
2018-12-17T02:19:27.392Z,0.83
2018-12-17T02:21:41.677Z,0.85
2018-12-17T02:22:20.019Z,0.94
2018-12-17T02:23:40.062Z,0.86
2018-12-17T02:24:20.973Z,0.86
2018-12-17T02:25:26.003Z,0.90
2018-12-17T02:26:21.663Z,0.88
2018-12-17T02:27:21.563Z,0.86
2018-12-17T02:28:19.843Z,0.82
2018-12-17T02:31:04.007Z,0.85
2018-12-17T02:33:36.044Z,0.83
2018-12-17T02:34:34.587Z,0.85
2018-12-17T02:36:10.775Z,0.89
2018-12-17T02:37:53.808Z,0.89
2018-12-17T02:38:33.187Z,0.88
2018-12-17T03:03:36.032Z,1.83
2018-12-17T03:12:43.029Z,2.06
2018-12-17T03:21:52.150Z,2.10
2018-12-17T03:24:37.987Z,2.15
2018-12-17T03:26:48.766Z,2.30
2018-12-17T03:27:48.249Z,2.23
2018-12-17T03:30:27.901Z,2.28
2018-12-17T03:31:20.117Z,2.22
2018-12-17T03:32:19.960Z,2.31
2018-12-17T03:33:20.418Z,2.31
2018-12-17T03:34:19.944Z,2.45
2018-12-17T03:35:19.620Z,2.40
2018-12-17T03:36:19.604Z,2.46
2018-12-17T03:37:19.621Z,2.34
2018-12-17T03:38:19.678Z,2.44
2018-12-17T03:39:20.720Z,2.44
2018-12-17T03:40:21.619Z,2.41
2018-12-17T03:41:19.654Z,2.38
2018-12-17T03:42:19.966Z,2.30
2018-12-17T03:43:19.775Z,2.30
2018-12-17T03:44:24.122Z,2.34
2018-12-17T03:45:21.106Z,2.28
2018-12-17T03:46:19.519Z,2.23
2018-12-17T03:47:19.649Z,2.28
2018-12-17T03:48:19.503Z,2.26
2018-12-17T03:49:19.485Z,2.33
2018-12-17T03:50:19.446Z,2.34
2018-12-17T03:51:19.394Z,2.22
2018-12-17T03:52:19.405Z,2.34
2018-12-17T03:53:19.374Z,2.34
2018-12-17T03:54:19.364Z,2.30
2018-12-17T03:55:19.465Z,2.35
2018-12-17T03:56:19.457Z,2.30
2018-12-17T03:57:19.467Z,2.20
2018-12-17T03:58:19.484Z,2.27
2018-12-17T03:59:20.189Z,2.22
2018-12-17T04:00:20.112Z,2.22
2018-12-17T04:01:19.447Z,2.23
2018-12-17T04:03:47.756Z,2.22
2018-12-17T04:17:26.757Z,2.13
2018-12-17T04:21:02.222Z,2.06
2018-12-17T04:21:54.166Z,2.02
2018-12-17T04:23:02.090Z,2.06
2018-12-17T04:24:52.494Z,1.98
2018-12-17T04:32:48.055Z,1.78
2018-12-17T04:35:15.960Z,1.87
2018-12-17T04:36:15.937Z,1.79
2018-12-17T04:37:15.840Z,1.87
2018-12-17T04:38:15.809Z,1.91
2018-12-17T04:39:15.530Z,1.89
2018-12-17T04:40:15.649Z,1.89
2018-12-17T04:41:15.501Z,1.79
2018-12-17T04:42:22.913Z,1.79
2018-12-17T04:44:09.194Z,1.90
2018-12-17T04:45:09.167Z,1.90
2018-12-17T04:47:02.621Z,1.76
2018-12-17T04:48:02.489Z,1.79
2018-12-17T04:49:56.056Z,1.62
2018-12-17T04:50:56.097Z,1.61
2018-12-17T04:52:49.065Z,1.71
2018-12-17T04:53:49.997Z,1.65
2018-12-17T04:55:42.736Z,1.79
2018-12-17T04:56:44.465Z,1.72
2018-12-17T04:58:36.100Z,1.69
2018-12-17T04:59:36.064Z,1.69
2018-12-17T05:01:28.767Z,1.65
2018-12-17T05:02:28.990Z,1.64
2018-12-17T05:03:28.674Z,1.65
2018-12-17T05:04:28.734Z,1.71
2018-12-17T05:05:28.602Z,1.71
2018-12-17T05:06:28.570Z,1.52
2018-12-17T05:07:28.558Z,1.54
2018-12-17T05:08:28.557Z,1.55
2018-12-17T05:09:28.541Z,1.58
2018-12-17T05:10:28.541Z,1.57
2018-12-17T05:11:28.556Z,1.64
2018-12-17T05:12:40.640Z,1.60
2018-12-17T05:13:40.594Z,1.69
2018-12-17T05:15:33.558Z,1.62
2018-12-17T05:16:33.447Z,1.68
2018-12-17T05:18:26.285Z,1.72
2018-12-17T05:19:26.250Z,1.71
2018-12-17T05:21:20.163Z,1.69
2018-12-17T05:22:20.084Z,1.68
2018-12-17T05:24:13.382Z,1.75
2018-12-17T05:25:13.041Z,1.82
2018-12-17T05:27:05.954Z,1.91
2018-12-17T05:28:05.745Z,2.09
2018-12-17T05:29:59.529Z,2.09
2018-12-17T05:30:59.150Z,2.01
2018-12-17T05:32:52.978Z,2.19
2018-12-17T05:33:52.855Z,2.27
2018-12-17T05:35:45.859Z,2.26
2018-12-17T05:36:45.551Z,2.23
2018-12-17T05:38:38.593Z,2.33
2018-12-17T05:39:38.520Z,2.35
2018-12-17T05:41:31.361Z,2.30
2018-12-17T05:42:31.311Z,2.34
2018-12-17T05:44:24.623Z,2.40
2018-12-17T05:45:24.595Z,2.37
2018-12-17T05:47:17.457Z,2.45
2018-12-17T05:48:24.603Z,2.44
2018-12-17T05:50:11.029Z,2.51
2018-12-17T05:51:10.721Z,2.38
2018-12-17T05:52:10.747Z,2.35
2018-12-17T05:53:10.716Z,2.35
2018-12-17T05:54:10.779Z,2.31
2018-12-17T05:55:10.622Z,2.23
2018-12-17T05:56:10.623Z,2.28
2018-12-17T05:57:10.597Z,2.26
2018-12-17T05:58:10.579Z,2.34
2018-12-17T05:59:10.618Z,2.38
2018-12-17T06:00:10.563Z,2.37
2018-12-17T06:01:10.551Z,2.27
2018-12-17T06:02:10.542Z,2.23
2018-12-17T06:03:10.530Z,2.26
2018-12-17T06:04:10.534Z,2.34
2018-12-17T06:05:10.520Z,2.34
2018-12-17T06:06:10.503Z,2.31
2018-12-17T06:07:10.519Z,2.27
2018-12-17T06:20:09.018Z,2.30
2018-12-17T06:21:08.770Z,2.23
2018-12-17T06:23:05.585Z,2.27
2018-12-17T06:24:04.028Z,2.23
2018-12-17T06:25:03.454Z,2.27
2018-12-17T06:26:03.431Z,2.27
2018-12-17T06:27:04.397Z,2.13
2018-12-17T06:28:04.425Z,2.13
2018-12-17T06:29:03.430Z,2.15
2018-12-17T06:30:03.160Z,2.13
2018-12-17T06:31:03.122Z,2.15
2018-12-17T06:32:08.206Z,2.19
2018-12-17T06:33:03.109Z,2.16
2018-12-17T06:34:03.086Z,2.22
2018-12-17T06:35:03.078Z,2.12
2018-12-17T06:36:03.072Z,2.16
2018-12-17T06:37:03.153Z,2.15
2018-12-17T06:38:03.058Z,2.26
2018-12-17T06:39:03.094Z,2.22
2018-12-17T06:40:09.999Z,2.27
2018-12-17T06:41:03.067Z,2.27
2018-12-17T06:42:03.294Z,2.20
2018-12-17T06:43:03.031Z,2.20
2018-12-17T06:44:03.021Z,2.20
2018-12-17T06:45:03.031Z,2.27
2018-12-17T06:46:03.000Z,2.35
2018-12-17T06:47:03.084Z,2.33
2018-12-17T06:48:03.750Z,2.34
2018-12-17T06:49:03.076Z,2.38
2018-12-17T06:50:04.402Z,2.45
2018-12-17T06:52:58.144Z,2.46
2018-12-17T06:53:57.808Z,2.45
2018-12-17T06:55:52.478Z,2.52
2018-12-17T06:56:51.129Z,2.56
2018-12-17T06:57:51.031Z,2.48
2018-12-17T06:58:50.812Z,2.46
2018-12-17T06:59:50.992Z,2.48
2018-12-17T07:00:50.638Z,2.53
2018-12-17T07:01:50.717Z,2.51
2018-12-17T07:02:50.579Z,2.46
2018-12-17T07:03:50.847Z,2.51
2018-12-17T07:04:52.152Z,2.55
2018-12-17T07:05:50.545Z,2.59
2018-12-17T07:06:50.539Z,2.58
2018-12-17T07:07:50.546Z,2.67
2018-12-17T07:08:50.788Z,2.61
2018-12-17T07:09:50.512Z,2.63
2018-12-17T07:10:50.503Z,2.66
2018-12-17T07:11:50.495Z,2.66
2018-12-17T07:12:50.493Z,2.61
2018-12-17T07:13:50.483Z,2.69
2018-12-17T07:14:50.470Z,2.73
2018-12-17T07:15:50.459Z,2.70
2018-12-17T07:16:50.447Z,2.70
2018-12-17T07:17:50.455Z,2.74
2018-12-17T07:18:50.434Z,2.71
2018-12-17T07:19:50.432Z,2.79
2018-12-17T07:20:50.428Z,2.70
2018-12-17T07:21:50.405Z,2.74
2018-12-17T07:22:50.397Z,2.70
2018-12-17T07:23:50.391Z,2.73
2018-12-17T07:24:50.381Z,2.77
2018-12-17T07:25:50.372Z,2.77
2018-12-17T07:26:50.370Z,2.73
2018-12-17T07:27:50.355Z,2.71
2018-12-17T07:28:50.345Z,2.70
2018-12-17T07:29:50.340Z,2.81
2018-12-17T07:30:50.334Z,2.82
2018-12-17T07:31:50.322Z,2.73
2018-12-17T07:32:50.324Z,2.79
2018-12-17T07:33:50.305Z,2.79
2018-12-17T07:34:50.291Z,2.76
2018-12-17T07:35:50.284Z,2.85
2018-12-17T07:36:50.275Z,2.88
2018-12-17T07:37:50.267Z,2.84
2018-12-17T07:38:50.264Z,2.89
2018-12-17T07:39:50.252Z,2.84
2018-12-17T07:40:50.244Z,2.84
2018-12-17T07:41:50.231Z,2.88
2018-12-17T07:42:50.225Z,2.89
2018-12-17T07:43:50.226Z,2.94
2018-12-17T07:44:50.209Z,2.92
2018-12-17T07:45:50.198Z,2.94
2018-12-17T07:46:50.191Z,3.02
2018-12-17T07:47:50.183Z,3.02
2018-12-17T07:48:50.188Z,2.92
2018-12-17T07:49:50.165Z,2.91
2018-12-17T07:50:50.154Z,2.92
2018-12-17T07:51:50.164Z,2.91
2018-12-17T07:52:50.139Z,3.05
2018-12-17T07:53:50.155Z,3.00
2018-12-17T07:54:50.123Z,3.07
2018-12-17T07:55:50.127Z,3.07
2018-12-17T07:56:50.126Z,3.05
2018-12-17T07:57:50.183Z,3.06
2018-12-17T07:58:50.088Z,3.05
2018-12-17T07:59:56.525Z,3.09
2018-12-17T08:00:50.072Z,3.07
2018-12-17T08:01:50.065Z,3.18
2018-12-17T08:02:50.056Z,3.18
2018-12-17T08:03:50.048Z,3.21
2018-12-17T08:04:50.041Z,3.20
2018-12-17T08:05:50.031Z,3.24
2018-12-17T08:06:50.024Z,3.33
2018-12-17T08:07:50.014Z,3.39
2018-12-17T08:08:50.007Z,3.46
2018-12-17T08:09:49.999Z,3.43
2018-12-17T08:10:50.004Z,3.58
2018-12-17T08:11:49.984Z,3.53
2018-12-17T08:12:49.986Z,3.57
2018-12-17T08:13:49.978Z,3.46
2018-12-17T08:14:49.960Z,3.57
2018-12-17T08:15:49.963Z,3.65
2018-12-17T08:16:49.944Z,3.65
2018-12-17T08:17:49.935Z,3.71
2018-12-17T08:18:49.969Z,3.78
2018-12-17T08:19:49.921Z,3.80
2018-12-17T08:20:49.916Z,3.90
2018-12-17T08:21:49.903Z,3.89
2018-12-17T08:22:49.906Z,3.98
2018-12-17T08:23:49.888Z,4.00
2018-12-17T08:24:49.880Z,3.96
2018-12-17T08:25:49.875Z,3.98
2018-12-17T08:26:49.864Z,3.94
2018-12-17T08:27:49.864Z,3.92
2018-12-17T08:28:49.852Z,3.92
2018-12-17T08:29:49.876Z,3.90
2018-12-17T08:30:49.839Z,3.90
2018-12-17T08:31:49.832Z,3.92
2018-12-17T08:32:49.833Z,3.80
2018-12-17T08:33:49.829Z,3.86
2018-12-17T08:34:49.814Z,3.79
2018-12-17T08:35:49.827Z,3.88
2018-12-17T08:36:49.794Z,3.72
2018-12-17T08:37:49.783Z,3.75
2018-12-17T08:38:49.803Z,3.76
2018-12-17T08:39:49.773Z,3.76
2018-12-17T08:40:49.767Z,3.75
2018-12-17T08:41:49.778Z,3.75
2018-12-17T08:42:49.747Z,3.70
2018-12-17T08:43:49.741Z,3.76
2018-12-17T08:44:49.748Z,3.76
2018-12-17T08:45:49.724Z,3.75
2018-12-17T08:46:49.718Z,3.80
2018-12-17T08:47:49.714Z,3.88
2018-12-17T08:48:49.703Z,3.96
2018-12-17T08:49:49.695Z,4.07
2018-12-17T08:50:49.686Z,4.36
2018-12-17T08:51:49.685Z,4.55
2018-12-17T08:52:49.684Z,4.52
2018-12-17T08:53:49.666Z,4.65
2018-12-17T08:54:49.670Z,4.65
2018-12-17T08:55:49.651Z,4.69
2018-12-17T08:56:49.644Z,4.65
2018-12-17T08:57:49.638Z,4.83
2018-12-17T08:58:49.627Z,5.12
2018-12-17T08:59:49.623Z,5.32
2018-12-17T09:00:49.618Z,5.71
2018-12-17T09:01:49.615Z,6.00
2018-12-17T09:02:49.606Z,6.18
2018-12-17T09:03:49.606Z,6.30
2018-12-17T09:04:49.591Z,6.59
2018-12-17T09:05:49.593Z,6.83
2018-12-17T09:06:49.580Z,6.81
2018-12-17T09:07:49.576Z,6.83
2018-12-17T09:08:49.569Z,6.89
2018-12-17T09:09:49.565Z,7.13
2018-12-17T09:10:49.561Z,7.35
2018-12-17T09:11:49.558Z,7.31
2018-12-17T09:12:49.571Z,7.32
2018-12-17T09:13:49.546Z,7.38
2018-12-17T09:14:49.546Z,7.19
2018-12-17T09:15:49.542Z,6.73
2018-12-17T09:16:49.535Z,6.51
2018-12-17T09:17:49.533Z,6.32
2018-12-17T09:18:49.527Z,6.22
2018-12-17T09:19:49.522Z,6.19
2018-12-17T09:20:49.518Z,6.07
2018-12-17T09:21:49.529Z,5.85
2018-12-17T09:22:49.511Z,5.85
2018-12-17T09:23:49.506Z,5.73
2018-12-17T09:24:49.504Z,5.53
2018-12-17T09:25:49.504Z,5.66
2018-12-17T09:26:49.555Z,5.81
2018-12-17T09:27:49.493Z,5.78
2018-12-17T09:28:49.486Z,5.96
2018-12-17T09:29:49.481Z,6.03
2018-12-17T09:30:49.480Z,6.21
2018-12-17T09:31:49.483Z,6.33
2018-12-17T09:32:49.501Z,6.99
2018-12-17T09:33:49.464Z,8.32
2018-12-17T09:34:49.460Z,9.06
2018-12-17T09:35:49.461Z,9.49
2018-12-17T09:36:49.460Z,9.56
2018-12-17T09:37:49.452Z,9.12
2018-12-17T09:38:49.455Z,8.72
2018-12-17T09:39:49.451Z,8.32
2018-12-17T09:40:49.450Z,8.08
2018-12-17T09:41:49.447Z,7.69
2018-12-17T09:42:49.447Z,7.35
2018-12-17T09:43:49.448Z,7.16
2018-12-17T09:44:49.445Z,7.19
2018-12-17T09:45:49.446Z,7.35
2018-12-17T09:46:49.444Z,7.23
2018-12-17T09:47:49.458Z,7.35
2018-12-17T09:48:49.436Z,7.20
2018-12-17T09:49:49.437Z,7.27
2018-12-17T09:50:49.437Z,6.95
2018-12-17T09:51:49.447Z,7.04
2018-12-17T09:52:49.435Z,6.94
2018-12-17T09:53:49.430Z,6.99
2018-12-17T09:54:49.432Z,7.04
2018-12-17T09:55:49.428Z,6.98
2018-12-17T09:56:49.435Z,6.94
2018-12-17T09:57:49.424Z,7.01
2018-12-17T09:58:49.425Z,6.84
2018-12-17T09:59:49.420Z,6.71
2018-12-17T10:00:49.423Z,6.59
2018-12-17T10:01:49.414Z,6.44
2018-12-17T10:02:49.413Z,6.18
2018-12-17T10:03:49.413Z,6.25
2018-12-17T10:04:49.422Z,6.19
2018-12-17T10:05:49.406Z,6.10
2018-12-17T10:06:49.410Z,5.95
2018-12-17T10:07:49.403Z,5.89
2018-12-17T10:08:49.399Z,5.96
2018-12-17T10:09:49.395Z,5.93
2018-12-17T10:10:49.392Z,5.88
2018-12-17T10:11:49.389Z,5.92
2018-12-17T10:12:49.386Z,5.91
2018-12-17T10:13:49.384Z,5.88
2018-12-17T10:14:49.380Z,5.86
2018-12-17T10:15:49.384Z,6.00
2018-12-17T10:16:49.373Z,5.95
2018-12-17T10:17:49.366Z,6.18
2018-12-17T10:18:49.367Z,6.21
2018-12-17T10:19:49.358Z,6.56
2018-12-17T10:20:49.358Z,6.44
2018-12-17T10:21:49.358Z,6.91
2018-12-17T10:22:49.349Z,6.86
2018-12-17T10:23:49.348Z,6.48
2018-12-17T10:24:49.347Z,6.43
2018-12-17T10:25:49.341Z,6.13
2018-12-17T10:26:49.341Z,5.93
2018-12-17T10:27:49.332Z,5.73
2018-12-17T10:28:49.339Z,5.66
2018-12-17T10:29:49.326Z,5.67
2018-12-17T10:30:49.325Z,5.70
2018-12-17T10:31:49.319Z,5.64
2018-12-17T10:32:49.316Z,5.57
2018-12-17T10:33:49.312Z,5.52
2018-12-17T10:34:49.321Z,5.63
2018-12-17T10:35:49.305Z,5.57
2018-12-17T10:36:49.305Z,5.74
2018-12-17T10:37:49.298Z,5.75
2018-12-17T10:38:49.295Z,5.85
2018-12-17T10:39:49.293Z,5.78
2018-12-17T10:40:49.288Z,5.85
2018-12-17T10:41:49.283Z,5.77
2018-12-17T10:42:49.279Z,5.82
2018-12-17T10:43:49.277Z,5.74
2018-12-17T10:44:49.276Z,5.73
2018-12-17T10:45:49.270Z,5.68
2018-12-17T10:46:49.266Z,5.75
2018-12-17T10:47:49.265Z,5.64
2018-12-17T10:48:49.268Z,5.53
2018-12-17T10:49:49.267Z,5.43
2018-12-17T10:50:49.252Z,5.41
2018-12-17T10:51:49.253Z,5.45
2018-12-17T10:52:49.247Z,5.40
2018-12-17T10:53:49.240Z,5.45
2018-12-17T10:54:49.235Z,5.38
2018-12-17T10:55:49.240Z,5.35
2018-12-17T10:56:49.229Z,5.25
2018-12-17T10:57:49.222Z,5.28
2018-12-17T10:58:49.219Z,5.22
2018-12-17T10:59:49.247Z,5.31
2018-12-17T11:00:49.223Z,5.32
2018-12-17T11:01:49.221Z,5.38
2018-12-17T11:02:49.215Z,5.32
2018-12-17T11:03:49.196Z,5.32
2018-12-17T11:04:49.196Z,5.41
2018-12-17T11:05:49.187Z,5.37
2018-12-17T11:06:49.191Z,5.37
2018-12-17T11:07:49.179Z,5.32
2018-12-17T11:08:49.177Z,5.31
2018-12-17T11:09:49.169Z,5.25
2018-12-17T11:10:49.166Z,5.32
2018-12-17T11:11:49.165Z,5.35
2018-12-17T11:12:49.152Z,5.37
2018-12-17T11:13:49.146Z,5.40
2018-12-17T11:14:49.142Z,5.50
2018-12-17T11:15:49.135Z,5.43
2018-12-17T11:16:49.130Z,5.49
2018-12-17T11:17:49.130Z,5.63
2018-12-17T11:18:49.119Z,5.60
2018-12-17T11:19:49.132Z,5.63
2018-12-17T11:20:49.135Z,5.68
2018-12-17T11:21:49.107Z,5.75
2018-12-17T11:22:49.100Z,5.75
2018-12-17T11:23:49.094Z,5.78
2018-12-17T11:24:49.087Z,5.81
2018-12-17T11:25:49.090Z,5.73
2018-12-17T11:26:49.083Z,5.70
2018-12-17T11:27:49.075Z,5.78
2018-12-17T11:28:49.065Z,5.78
2018-12-17T11:29:49.063Z,5.73
2018-12-17T11:30:49.058Z,5.70
2018-12-17T11:31:49.048Z,5.75
2018-12-17T11:32:49.046Z,5.73
2018-12-17T11:33:49.045Z,5.74
2018-12-17T11:34:49.034Z,5.81
2018-12-17T11:35:49.029Z,5.75
2018-12-17T11:36:49.022Z,5.75
2018-12-17T11:37:49.018Z,5.73
2018-12-17T11:38:49.011Z,5.59
2018-12-17T11:39:49.026Z,5.71
2018-12-17T11:40:49.018Z,5.64
2018-12-17T11:41:49.009Z,5.66
2018-12-17T11:42:48.989Z,5.56
2018-12-17T11:43:48.984Z,5.56
2018-12-17T11:44:48.982Z,5.43
2018-12-17T11:45:48.976Z,5.45
2018-12-17T11:46:48.965Z,5.43
2018-12-17T11:47:48.966Z,5.43
2018-12-17T11:48:48.964Z,5.37
2018-12-17T11:49:48.952Z,5.41
2018-12-17T11:50:48.946Z,5.32
2018-12-17T11:51:48.940Z,5.27
2018-12-17T11:52:48.937Z,5.27
2018-12-17T11:53:48.931Z,5.13
2018-12-17T11:54:48.924Z,5.16
2018-12-17T11:55:48.946Z,5.16
2018-12-17T11:56:48.915Z,5.22
2018-12-17T11:57:48.905Z,5.12
2018-12-17T11:58:48.914Z,5.07
2018-12-17T11:59:48.893Z,5.14
2018-12-17T12:00:53.730Z,5.07
2018-12-17T12:01:48.884Z,5.16
2018-12-17T12:02:48.877Z,5.19
2018-12-17T12:03:48.873Z,5.16
2018-12-17T12:04:48.868Z,5.09
2018-12-17T12:05:48.861Z,5.09
2018-12-17T12:06:48.856Z,5.12
2018-12-17T12:07:48.850Z,5.10
2018-12-17T12:08:48.850Z,5.07
2018-12-17T12:09:48.858Z,5.19
2018-12-17T12:10:48.853Z,5.14
2018-12-17T12:11:48.825Z,5.19
2018-12-17T12:12:48.822Z,5.14
2018-12-17T12:13:48.817Z,5.13
2018-12-17T12:14:48.806Z,5.07
2018-12-17T12:15:48.803Z,5.12
2018-12-17T12:16:48.798Z,5.07
2018-12-17T12:17:48.794Z,5.10
2018-12-17T12:18:48.784Z,5.07
2018-12-17T12:19:48.779Z,5.07
2018-12-17T12:20:48.775Z,4.96
2018-12-17T12:21:48.766Z,5.02
2018-12-17T12:22:48.761Z,5.01
2018-12-17T12:23:48.759Z,4.95
2018-12-17T12:24:48.749Z,4.95
2018-12-17T12:25:48.744Z,4.99
2018-12-17T12:26:48.734Z,4.83
2018-12-17T12:27:48.736Z,4.91
2018-12-17T12:28:48.724Z,4.94
2018-12-17T12:29:48.723Z,4.92
2018-12-17T12:30:48.711Z,4.95
2018-12-17T12:31:48.735Z,4.91
2018-12-17T12:32:48.703Z,4.94
2018-12-17T12:33:48.693Z,4.96
2018-12-17T12:34:48.687Z,4.88
2018-12-17T12:35:48.681Z,4.98
2018-12-17T12:36:48.676Z,4.88
2018-12-17T12:37:48.668Z,4.89
2018-12-17T12:38:48.661Z,4.92
2018-12-17T12:39:48.652Z,4.92
2018-12-17T12:40:48.647Z,4.89
2018-12-17T12:41:48.641Z,4.83
2018-12-17T12:42:51.762Z,4.89
2018-12-17T12:43:48.648Z,4.91
2018-12-17T12:44:48.644Z,4.84
2018-12-17T12:45:48.622Z,4.83
2018-12-17T12:46:48.673Z,4.83
2018-12-17T12:47:48.614Z,4.76
2018-12-17T12:48:48.595Z,4.79
2018-12-17T12:49:48.592Z,4.67
2018-12-17T12:50:48.584Z,4.64
2018-12-17T12:51:50.181Z,4.59
2018-12-17T12:52:48.569Z,4.65
2018-12-17T12:53:48.585Z,4.65
2018-12-17T12:54:48.559Z,4.69
2018-12-17T12:55:48.551Z,4.57
2018-12-17T12:56:48.542Z,4.67
2018-12-17T12:57:48.537Z,4.72
2018-12-17T12:58:48.529Z,4.61
2018-12-17T12:59:48.521Z,4.65
2018-12-17T13:00:48.518Z,4.61
2018-12-17T13:01:48.515Z,4.70
2018-12-17T13:02:48.503Z,4.67
2018-12-17T13:03:48.495Z,4.62
2018-12-17T13:04:48.488Z,4.67
2018-12-17T13:05:48.480Z,4.69
2018-12-17T13:06:48.478Z,4.67
2018-12-17T13:07:48.471Z,4.69
2018-12-17T13:08:48.472Z,4.70
2018-12-17T13:09:48.454Z,4.67
2018-12-17T13:10:48.448Z,4.64
2018-12-17T13:11:48.463Z,4.62
2018-12-17T13:12:48.444Z,4.62
2018-12-17T13:13:48.443Z,4.65
2018-12-17T13:14:48.422Z,4.67
2018-12-17T13:15:48.469Z,4.65
2018-12-17T13:16:48.416Z,4.62
2018-12-17T13:17:48.756Z,4.70
2018-12-17T13:18:48.393Z,4.61
2018-12-17T13:19:48.630Z,4.50
2018-12-17T13:20:48.382Z,4.52
2018-12-17T13:21:48.379Z,4.50
2018-12-17T13:22:48.367Z,4.50
2018-12-17T13:23:48.358Z,4.50
2018-12-17T13:24:48.351Z,4.46
2018-12-17T13:25:48.347Z,4.57
2018-12-17T13:26:48.338Z,4.54
2018-12-17T13:27:48.331Z,4.47
2018-12-17T13:28:48.329Z,4.43
2018-12-17T13:29:48.321Z,4.50
2018-12-17T13:30:48.314Z,4.42
2018-12-17T13:31:48.314Z,4.47
2018-12-17T13:32:48.296Z,4.44
2018-12-17T13:33:48.288Z,4.44
2018-12-17T13:34:48.286Z,4.51
2018-12-17T13:35:48.275Z,4.44
2018-12-17T13:36:48.269Z,4.33
2018-12-17T13:37:48.281Z,4.50
2018-12-17T13:38:48.271Z,4.44
2018-12-17T13:39:48.250Z,4.39
2018-12-17T13:40:48.267Z,4.42
2018-12-17T13:41:48.234Z,4.43
2018-12-17T13:42:48.228Z,4.33
2018-12-17T13:43:48.230Z,4.40
2018-12-17T13:44:48.213Z,4.32
2018-12-17T13:45:48.236Z,4.32
2018-12-17T13:46:48.219Z,4.39
2018-12-17T13:47:48.207Z,4.33
2018-12-17T13:48:48.183Z,4.32
2018-12-17T13:49:48.241Z,4.26
2018-12-17T13:50:48.233Z,4.37
2018-12-17T13:51:48.160Z,4.33
2018-12-17T13:52:48.217Z,4.26
2018-12-17T13:53:51.803Z,4.24
2018-12-17T13:54:48.156Z,4.33
2018-12-17T13:55:48.257Z,4.19
2018-12-17T13:56:51.825Z,4.19
2018-12-17T13:57:48.118Z,4.24
2018-12-17T14:01:07.325Z,4.22
2018-12-17T14:02:09.708Z,4.18
2018-12-17T14:03:07.338Z,4.16
2018-12-17T14:04:08.240Z,4.24
2018-12-17T14:05:04.307Z,4.21
2018-12-17T14:06:08.658Z,4.10
2018-12-17T14:07:10.223Z,4.16
2018-12-17T14:08:10.771Z,4.14
2018-12-17T14:09:25.714Z,4.18
2018-12-17T14:10:02.869Z,4.18
2018-12-17T14:11:04.882Z,4.24
2018-12-17T14:12:11.924Z,4.19
2018-12-17T14:13:56.661Z,4.16
2018-12-17T14:15:04.328Z,4.18
2018-12-17T14:16:49.498Z,4.16
2018-12-17T14:17:49.283Z,4.19
2018-12-17T14:19:42.218Z,4.10
2018-12-17T14:20:42.093Z,4.16
2018-12-17T14:22:35.153Z,4.15
2018-12-17T14:23:34.940Z,4.21
2018-12-17T14:25:28.443Z,4.19
2018-12-17T14:26:28.391Z,4.19
2018-12-17T14:27:28.301Z,4.12
2018-12-17T14:28:28.458Z,4.06
2018-12-17T14:29:28.470Z,4.03
2018-12-17T14:30:28.247Z,4.16
2018-12-17T14:31:28.984Z,4.06
2018-12-17T14:32:28.211Z,4.14
2018-12-17T14:33:28.204Z,4.06
2018-12-17T14:34:28.172Z,4.14
2018-12-17T14:35:28.081Z,4.03
2018-12-17T14:36:37.333Z,4.08
2018-12-17T14:38:21.855Z,4.01
2018-12-17T14:39:21.734Z,4.01
2018-12-17T14:41:17.173Z,3.98
2018-12-17T14:42:16.889Z,4.01
2018-12-17T14:44:09.965Z,4.03
2018-12-17T14:45:10.301Z,3.97
2018-12-17T14:47:04.277Z,3.98
2018-12-17T14:48:03.654Z,3.97
2018-12-17T14:49:56.751Z,3.92
2018-12-17T14:50:56.510Z,3.89
2018-12-17T14:52:50.098Z,3.89
2018-12-17T14:53:49.994Z,3.90
2018-12-17T14:55:45.373Z,3.89
2018-12-17T14:56:43.379Z,3.92
2018-12-17T14:58:44.093Z,3.78
2018-12-17T14:59:44.255Z,3.92
2018-12-17T15:01:35.741Z,3.92
2018-12-17T15:02:30.173Z,3.85
2018-12-17T15:04:23.348Z,3.85
2018-12-17T15:05:23.063Z,3.83
2018-12-17T15:07:16.059Z,3.83
2018-12-17T15:08:15.937Z,3.82
2018-12-17T15:10:09.971Z,3.82
2018-12-17T15:11:09.856Z,3.88
2018-12-17T15:13:02.906Z,3.82
2018-12-17T15:14:10.550Z,3.85
2018-12-17T15:15:56.788Z,3.82
2018-12-17T15:16:55.750Z,3.85
2018-12-17T15:18:03.027Z,3.89
2018-12-17T15:19:49.123Z,3.72
2018-12-17T15:20:48.828Z,3.78
2018-12-17T15:21:48.724Z,3.82
2018-12-17T15:22:49.062Z,3.80
2018-12-17T15:23:48.671Z,3.72
2018-12-17T15:24:48.623Z,3.72
2018-12-17T15:25:48.613Z,3.71
2018-12-17T15:26:48.618Z,3.75
2018-12-17T15:27:48.605Z,3.71
2018-12-17T15:28:56.346Z,3.82
2018-12-17T15:30:42.354Z,3.82
2018-12-17T15:31:43.171Z,3.80
2018-12-17T15:35:07.249Z,3.86
2018-12-17T15:36:07.316Z,3.88
2018-12-17T15:38:00.719Z,3.89
2018-12-17T15:39:00.543Z,3.82
2018-12-17T15:40:53.506Z,3.82
2018-12-17T15:41:53.443Z,3.82
2018-12-17T15:43:46.391Z,3.89
2018-12-17T15:44:46.238Z,3.88
2018-12-17T15:46:39.585Z,3.86
2018-12-17T15:47:39.564Z,3.85
2018-12-17T15:49:32.590Z,3.89
2018-12-17T15:50:32.513Z,3.90
2018-12-17T15:52:25.530Z,3.89
2018-12-17T15:53:25.427Z,3.83
2018-12-17T15:55:19.040Z,3.90
2018-12-17T15:56:18.700Z,3.92
2018-12-17T15:58:11.735Z,3.82
2018-12-17T15:59:11.736Z,3.85
2018-12-17T16:00:11.525Z,3.83
2018-12-17T16:01:11.539Z,3.86
2018-12-17T16:02:11.472Z,3.83
2018-12-17T16:03:11.432Z,3.88
2018-12-17T16:04:11.467Z,3.88
2018-12-17T16:05:11.421Z,3.86
2018-12-17T16:06:11.450Z,3.92
2018-12-17T16:07:11.407Z,3.80
2018-12-17T16:08:11.397Z,3.86
2018-12-17T16:09:11.380Z,3.92
2018-12-17T16:10:11.386Z,3.94
2018-12-17T16:11:11.371Z,3.92
2018-12-17T16:12:11.361Z,3.86
2018-12-17T16:13:11.353Z,3.82
2018-12-17T16:14:11.375Z,3.86
2018-12-17T16:15:13.045Z,3.85
2018-12-17T16:16:11.329Z,3.92
2018-12-17T16:17:11.367Z,3.92
2018-12-17T16:18:11.337Z,3.89
2018-12-17T16:19:11.308Z,3.96
2018-12-17T16:20:11.301Z,3.88
2018-12-17T16:21:11.291Z,3.89
2018-12-17T16:22:11.287Z,3.94
2018-12-17T16:23:11.294Z,3.79
2018-12-17T16:24:11.327Z,3.94
2018-12-17T16:25:11.264Z,3.96
2018-12-17T16:26:11.262Z,3.86
2018-12-17T16:27:11.273Z,3.83
2018-12-17T16:28:11.244Z,3.86
2018-12-17T16:29:11.231Z,3.90
2018-12-17T16:30:11.228Z,3.88
2018-12-17T16:31:11.218Z,3.76
2018-12-17T16:32:11.211Z,3.82
2018-12-17T16:33:14.450Z,3.85
2018-12-17T16:34:11.193Z,3.85
2018-12-17T16:35:11.216Z,3.82
2018-12-17T16:36:11.205Z,3.85
2018-12-17T16:37:11.170Z,3.82
2018-12-17T16:38:11.165Z,3.85
2018-12-17T16:39:11.161Z,3.88